sensor_id;sensor_type;location;lat;lon;timestamp;temperature;humidity
3037;DHT22;1528;52.550;13.408;2022-09-09T00:02:28;16.90;72.00
3037;DHT22;1528;52.550;13.408;2022-09-09T00:05:21;16.90;71.70
3037;DHT22;1528;52.550;13.408;2022-09-09T00:08:15;16.80;72.10
3037;DHT22;1528;52.550;13.408;2022-09-09T00:11:04;16.80;72.00
3037;DHT22;1528;52.550;13.408;2022-09-09T00:13:53;16.90;72.20
3037;DHT22;1528;52.550;13.408;2022-09-09T00:16:41;16.80;71.70
3037;DHT22;1528;52.550;13.408;2022-09-09T00:19:33;16.80;71.50
3037;DHT22;1528;52.550;13.408;2022-09-09T00:22:23;16.80;71.70
3037;DHT22;1528;52.550;13.408;2022-09-09T00:25:12;16.80;71.70
3037;DHT22;1528;52.550;13.408;2022-09-09T00:28:01;16.80;71.70
3037;DHT22;1528;52.550;13.408;2022-09-09T00:30:47;16.80;71.70
3037;DHT22;1528;52.550;13.408;2022-09-09T00:33:34;16.70;72.40
3037;DHT22;1528;52.550;13.408;2022-09-09T00:36:22;16.80;71.40
3037;DHT22;1528;52.550;13.408;2022-09-09T00:39:18;16.80;71.50
3037;DHT22;1528;52.550;13.408;2022-09-09T00:42:13;16.80;72.00
3037;DHT22;1528;52.550;13.408;2022-09-09T00:45:05;16.70;71.50
3037;DHT22;1528;52.550;13.408;2022-09-09T00:47:56;16.70;70.70
3037;DHT22;1528;52.550;13.408;2022-09-09T00:50:46;16.60;71.30
3037;DHT22;1528;52.550;13.408;2022-09-09T00:53:39;16.70;71.70
3037;DHT22;1528;52.550;13.408;2022-09-09T00:56:35;16.70;71.70
3037;DHT22;1528;52.550;13.408;2022-09-09T00:59:32;16.60;71.80
3037;DHT22;1528;52.550;13.408;2022-09-09T01:02:28;16.60;71.40
3037;DHT22;1528;52.550;13.408;2022-09-09T01:05:21;16.50;72.20
3037;DHT22;1528;52.550;13.408;2022-09-09T01:08:17;16.60;71.80
3037;DHT22;1528;52.550;13.408;2022-09-09T01:11:09;16.60;72.00
3037;DHT22;1528;52.550;13.408;2022-09-09T01:14:01;16.50;71.80
3037;DHT22;1528;52.550;13.408;2022-09-09T01:16:48;16.60;71.80
3037;DHT22;1528;52.550;13.408;2022-09-09T01:19:44;16.60;71.30
3037;DHT22;1528;52.550;13.408;2022-09-09T01:22:35;16.70;70.40
3037;DHT22;1528;52.550;13.408;2022-09-09T01:26:07;16.60;70.90
3037;DHT22;1528;52.550;13.408;2022-09-09T01:28:55;16.60;71.90
3037;DHT22;1528;52.550;13.408;2022-09-09T01:31:42;16.60;71.40
3037;DHT22;1528;52.550;13.408;2022-09-09T01:34:39;16.60;71.80
3037;DHT22;1528;52.550;13.408;2022-09-09T01:37:25;16.60;71.60
3037;DHT22;1528;52.550;13.408;2022-09-09T01:40:11;16.60;71.30
3037;DHT22;1528;52.550;13.408;2022-09-09T01:42:58;16.40;71.60
3037;DHT22;1528;52.550;13.408;2022-09-09T01:45:44;16.50;71.50
3037;DHT22;1528;52.550;13.408;2022-09-09T01:48:32;16.50;71.60
3037;DHT22;1528;52.550;13.408;2022-09-09T01:51:18;16.50;71.30
3037;DHT22;1528;52.550;13.408;2022-09-09T01:54:03;16.50;70.60
3037;DHT22;1528;52.550;13.408;2022-09-09T01:56:56;16.50;70.50
3037;DHT22;1528;52.550;13.408;2022-09-09T02:00:01;16.50;70.20
3037;DHT22;1528;52.550;13.408;2022-09-09T02:02:56;16.50;69.50
3037;DHT22;1528;52.550;13.408;2022-09-09T02:05:49;16.40;70.10
3037;DHT22;1528;52.550;13.408;2022-09-09T02:08:42;16.40;70.20
3037;DHT22;1528;52.550;13.408;2022-09-09T02:11:28;16.40;70.50
3037;DHT22;1528;52.550;13.408;2022-09-09T02:14:17;16.40;70.40
3037;DHT22;1528;52.550;13.408;2022-09-09T02:17:09;16.40;70.20
3037;DHT22;1528;52.550;13.408;2022-09-09T02:20:02;16.40;69.80
3037;DHT22;1528;52.550;13.408;2022-09-09T02:22:50;16.40;69.30
3037;DHT22;1528;52.550;13.408;2022-09-09T02:25:36;16.40;69.70
3037;DHT22;1528;52.550;13.408;2022-09-09T02:28:24;16.30;69.80
3037;DHT22;1528;52.550;13.408;2022-09-09T02:31:10;16.30;70.70
3037;DHT22;1528;52.550;13.408;2022-09-09T02:34:00;16.30;69.80
3037;DHT22;1528;52.550;13.408;2022-09-09T02:36:47;16.30;69.30
3037;DHT22;1528;52.550;13.408;2022-09-09T02:39:33;16.30;69.40
3037;DHT22;1528;52.550;13.408;2022-09-09T02:42:19;16.30;69.00
3037;DHT22;1528;52.550;13.408;2022-09-09T02:45:06;16.20;69.00
3037;DHT22;1528;52.550;13.408;2022-09-09T02:47:59;16.20;69.50
3037;DHT22;1528;52.550;13.408;2022-09-09T02:50:54;16.20;68.40
3037;DHT22;1528;52.550;13.408;2022-09-09T02:53:47;16.10;69.10
3037;DHT22;1528;52.550;13.408;2022-09-09T02:56:39;16.20;69.00
3037;DHT22;1528;52.550;13.408;2022-09-09T02:59:26;16.20;68.90
3037;DHT22;1528;52.550;13.408;2022-09-09T03:02:12;16.10;68.80
3037;DHT22;1528;52.550;13.408;2022-09-09T03:04:58;16.10;68.90
3037;DHT22;1528;52.550;13.408;2022-09-09T03:07:44;16.10;69.30
3037;DHT22;1528;52.550;13.408;2022-09-09T03:10:30;16.10;68.20
3037;DHT22;1528;52.550;13.408;2022-09-09T03:13:15;16.10;68.80
3037;DHT22;1528;52.550;13.408;2022-09-09T03:16:03;16.20;68.50
3037;DHT22;1528;52.550;13.408;2022-09-09T03:18:49;16.10;67.70
3037;DHT22;1528;52.550;13.408;2022-09-09T03:21:35;16.10;68.10
3037;DHT22;1528;52.550;13.408;2022-09-09T03:24:21;16.10;68.90
3037;DHT22;1528;52.550;13.408;2022-09-09T03:27:07;16.00;68.70
3037;DHT22;1528;52.550;13.408;2022-09-09T03:29:53;16.00;68.20
3037;DHT22;1528;52.550;13.408;2022-09-09T03:32:38;16.10;68.70
3037;DHT22;1528;52.550;13.408;2022-09-09T03:35:24;16.00;68.00
3037;DHT22;1528;52.550;13.408;2022-09-09T03:38:09;16.00;67.50
3037;DHT22;1528;52.550;13.408;2022-09-09T03:40:57;16.00;67.90
3037;DHT22;1528;52.550;13.408;2022-09-09T03:43:44;16.00;68.30
3037;DHT22;1528;52.550;13.408;2022-09-09T03:46:29;16.00;68.00
3037;DHT22;1528;52.550;13.408;2022-09-09T03:49:15;16.00;67.70
3037;DHT22;1528;52.550;13.408;2022-09-09T03:52:01;16.00;67.50
3037;DHT22;1528;52.550;13.408;2022-09-09T03:54:46;15.90;67.40
3037;DHT22;1528;52.550;13.408;2022-09-09T03:57:34;16.00;66.80
3037;DHT22;1528;52.550;13.408;2022-09-09T04:00:20;16.00;66.40
3037;DHT22;1528;52.550;13.408;2022-09-09T04:03:05;15.90;66.70
3037;DHT22;1528;52.550;13.408;2022-09-09T04:05:51;15.80;67.40
3037;DHT22;1528;52.550;13.408;2022-09-09T04:08:36;15.80;67.40
3037;DHT22;1528;52.550;13.408;2022-09-09T04:11:22;15.90;66.20
3037;DHT22;1528;52.550;13.408;2022-09-09T04:14:11;15.80;66.60
3037;DHT22;1528;52.550;13.408;2022-09-09T04:16:56;15.80;66.40
3037;DHT22;1528;52.550;13.408;2022-09-09T04:19:43;15.80;66.70
3037;DHT22;1528;52.550;13.408;2022-09-09T04:22:29;15.90;66.50
3037;DHT22;1528;52.550;13.408;2022-09-09T04:25:15;15.80;66.50
3037;DHT22;1528;52.550;13.408;2022-09-09T04:28:00;15.80;66.00
3037;DHT22;1528;52.550;13.408;2022-09-09T04:30:48;15.80;67.00
3037;DHT22;1528;52.550;13.408;2022-09-09T04:33:33;15.90;65.70
3037;DHT22;1528;52.550;13.408;2022-09-09T04:36:18;16.00;66.30
3037;DHT22;1528;52.550;13.408;2022-09-09T04:39:04;15.80;65.60
3037;DHT22;1528;52.550;13.408;2022-09-09T04:41:50;15.80;65.80
3037;DHT22;1528;52.550;13.408;2022-09-09T04:44:35;15.90;65.60
3037;DHT22;1528;52.550;13.408;2022-09-09T04:47:22;15.90;65.30
3037;DHT22;1528;52.550;13.408;2022-09-09T04:50:08;15.90;65.10
3037;DHT22;1528;52.550;13.408;2022-09-09T04:52:53;15.90;64.90
3037;DHT22;1528;52.550;13.408;2022-09-09T04:55:39;15.90;64.70
3037;DHT22;1528;52.550;13.408;2022-09-09T04:58:46;15.90;64.50
3037;DHT22;1528;52.550;13.408;2022-09-09T05:01:31;16.00;64.30
3037;DHT22;1528;52.550;13.408;2022-09-09T05:04:20;16.00;63.40
3037;DHT22;1528;52.550;13.408;2022-09-09T05:07:05;16.10;62.30
3037;DHT22;1528;52.550;13.408;2022-09-09T05:09:51;16.10;63.00
3037;DHT22;1528;52.550;13.408;2022-09-09T05:12:37;16.10;62.70
3037;DHT22;1528;52.550;13.408;2022-09-09T05:15:22;16.10;63.00
3037;DHT22;1528;52.550;13.408;2022-09-09T05:18:08;16.20;62.30
3037;DHT22;1528;52.550;13.408;2022-09-09T05:21:00;16.10;61.60
3037;DHT22;1528;52.550;13.408;2022-09-09T05:23:46;16.20;61.80
3037;DHT22;1528;52.550;13.408;2022-09-09T05:26:31;16.20;61.60
3037;DHT22;1528;52.550;13.408;2022-09-09T05:29:17;16.20;61.70
3037;DHT22;1528;52.550;13.408;2022-09-09T05:32:04;16.20;61.70
3037;DHT22;1528;52.550;13.408;2022-09-09T05:34:49;16.20;61.10
3037;DHT22;1528;52.550;13.408;2022-09-09T05:37:37;16.20;61.90
3037;DHT22;1528;52.550;13.408;2022-09-09T05:40:22;16.30;61.70
3037;DHT22;1528;52.550;13.408;2022-09-09T05:43:08;16.30;61.40
3037;DHT22;1528;52.550;13.408;2022-09-09T05:46:01;16.30;61.80
3037;DHT22;1528;52.550;13.408;2022-09-09T05:48:49;16.40;61.50
3037;DHT22;1528;52.550;13.408;2022-09-09T05:51:34;16.40;60.70
3037;DHT22;1528;52.550;13.408;2022-09-09T05:54:22;16.40;60.80
3037;DHT22;1528;52.550;13.408;2022-09-09T05:57:08;16.40;60.70
3037;DHT22;1528;52.550;13.408;2022-09-09T05:59:53;16.40;60.00
3037;DHT22;1528;52.550;13.408;2022-09-09T06:02:39;16.30;60.40
3037;DHT22;1528;52.550;13.408;2022-09-09T06:05:28;16.30;60.60
3037;DHT22;1528;52.550;13.408;2022-09-09T06:08:14;16.40;61.00
3037;DHT22;1528;52.550;13.408;2022-09-09T06:11:06;16.50;59.50
3037;DHT22;1528;52.550;13.408;2022-09-09T06:13:52;16.70;59.50
3037;DHT22;1528;52.550;13.408;2022-09-09T06:16:38;16.80;58.90
3037;DHT22;1528;52.550;13.408;2022-09-09T06:19:28;16.80;58.40
3037;DHT22;1528;52.550;13.408;2022-09-09T06:22:14;16.90;58.50
3037;DHT22;1528;52.550;13.408;2022-09-09T06:25:00;16.90;58.50
3037;DHT22;1528;52.550;13.408;2022-09-09T06:27:49;16.90;58.20
3037;DHT22;1528;52.550;13.408;2022-09-09T06:30:35;16.90;58.50
3037;DHT22;1528;52.550;13.408;2022-09-09T06:33:20;17.10;57.30
3037;DHT22;1528;52.550;13.408;2022-09-09T06:36:07;17.30;56.80
3037;DHT22;1528;52.550;13.408;2022-09-09T06:38:55;17.20;56.90
3037;DHT22;1528;52.550;13.408;2022-09-09T06:41:41;17.10;56.30
3037;DHT22;1528;52.550;13.408;2022-09-09T06:44:30;17.10;56.60
3037;DHT22;1528;52.550;13.408;2022-09-09T06:47:15;17.20;56.60
3037;DHT22;1528;52.550;13.408;2022-09-09T06:50:01;17.30;55.80
3037;DHT22;1528;52.550;13.408;2022-09-09T06:52:47;17.40;56.00
3037;DHT22;1528;52.550;13.408;2022-09-09T06:55:32;17.40;54.80
3037;DHT22;1528;52.550;13.408;2022-09-09T06:58:18;17.40;55.60
3037;DHT22;1528;52.550;13.408;2022-09-09T07:01:06;17.50;54.90
3037;DHT22;1528;52.550;13.408;2022-09-09T07:03:53;17.50;54.60
3037;DHT22;1528;52.550;13.408;2022-09-09T07:06:40;17.50;54.40
3037;DHT22;1528;52.550;13.408;2022-09-09T07:09:27;17.90;53.30
3037;DHT22;1528;52.550;13.408;2022-09-09T07:12:13;18.00;52.60
3037;DHT22;1528;52.550;13.408;2022-09-09T07:14:58;18.10;52.30
3037;DHT22;1528;52.550;13.408;2022-09-09T07:17:45;18.20;51.40
3037;DHT22;1528;52.550;13.408;2022-09-09T07:20:32;18.20;50.60
3037;DHT22;1528;52.550;13.408;2022-09-09T07:23:17;18.20;51.80
3037;DHT22;1528;52.550;13.408;2022-09-09T07:26:06;18.30;51.40
3037;DHT22;1528;52.550;13.408;2022-09-09T07:28:52;18.50;50.80
3037;DHT22;1528;52.550;13.408;2022-09-09T07:31:39;18.70;49.20
3037;DHT22;1528;52.550;13.408;2022-09-09T07:34:26;19.00;49.40
3037;DHT22;1528;52.550;13.408;2022-09-09T07:37:11;19.10;48.70
3037;DHT22;1528;52.550;13.408;2022-09-09T07:39:57;19.20;47.60
3037;DHT22;1528;52.550;13.408;2022-09-09T07:42:43;19.30;47.40
3037;DHT22;1528;52.550;13.408;2022-09-09T07:45:28;19.40;46.50
3037;DHT22;1528;52.550;13.408;2022-09-09T07:48:16;19.50;46.20
3037;DHT22;1528;52.550;13.408;2022-09-09T07:51:09;19.80;44.50
3037;DHT22;1528;52.550;13.408;2022-09-09T07:53:57;19.70;44.50
3037;DHT22;1528;52.550;13.408;2022-09-09T07:56:43;19.90;43.00
3037;DHT22;1528;52.550;13.408;2022-09-09T07:59:29;20.10;43.20
3037;DHT22;1528;52.550;13.408;2022-09-09T08:02:15;20.30;42.70
3037;DHT22;1528;52.550;13.408;2022-09-09T08:05:00;20.50;41.60
3037;DHT22;1528;52.550;13.408;2022-09-09T08:07:47;20.80;40.50
3037;DHT22;1528;52.550;13.408;2022-09-09T08:10:32;20.80;40.40
3037;DHT22;1528;52.550;13.408;2022-09-09T08:13:18;20.70;40.20
3037;DHT22;1528;52.550;13.408;2022-09-09T08:16:06;20.60;39.50
3037;DHT22;1528;52.550;13.408;2022-09-09T08:18:52;20.50;39.50
3037;DHT22;1528;52.550;13.408;2022-09-09T08:21:39;20.40;40.40
3037;DHT22;1528;52.550;13.408;2022-09-09T08:24:26;20.50;39.30
3037;DHT22;1528;52.550;13.408;2022-09-09T08:27:12;20.50;38.80
3037;DHT22;1528;52.550;13.408;2022-09-09T08:29:58;20.50;39.50
3037;DHT22;1528;52.550;13.408;2022-09-09T08:32:43;20.50;39.40
3037;DHT22;1528;52.550;13.408;2022-09-09T08:35:29;20.50;38.90
3037;DHT22;1528;52.550;13.408;2022-09-09T08:38:16;20.50;37.80
3037;DHT22;1528;52.550;13.408;2022-09-09T08:41:30;20.30;38.70
3037;DHT22;1528;52.550;13.408;2022-09-09T08:44:26;20.40;39.60
3037;DHT22;1528;52.550;13.408;2022-09-09T08:47:22;20.60;40.20
3037;DHT22;1528;52.550;13.408;2022-09-09T08:50:18;20.70;39.60
3037;DHT22;1528;52.550;13.408;2022-09-09T08:53:10;20.80;39.80
3037;DHT22;1528;52.550;13.408;2022-09-09T08:55:58;21.00;38.50
3037;DHT22;1528;52.550;13.408;2022-09-09T08:58:47;21.20;38.30
3037;DHT22;1528;52.550;13.408;2022-09-09T09:01:47;21.40;36.20
3037;DHT22;1528;52.550;13.408;2022-09-09T09:04:48;21.40;34.90
3037;DHT22;1528;52.550;13.408;2022-09-09T09:07:46;21.30;34.70
3037;DHT22;1528;52.550;13.408;2022-09-09T09:10:45;21.40;35.70
3037;DHT22;1528;52.550;13.408;2022-09-09T09:13:39;21.60;36.40
3037;DHT22;1528;52.550;13.408;2022-09-09T09:16:32;21.80;35.40
3037;DHT22;1528;52.550;13.408;2022-09-09T09:19:18;22.00;35.60
3037;DHT22;1528;52.550;13.408;2022-09-09T09:22:16;22.00;35.20
3037;DHT22;1528;52.550;13.408;2022-09-09T09:25:08;22.20;34.60
3037;DHT22;1528;52.550;13.408;2022-09-09T09:28:02;22.50;35.30
3037;DHT22;1528;52.550;13.408;2022-09-09T09:30:53;22.80;32.00
3037;DHT22;1528;52.550;13.408;2022-09-09T09:33:47;22.90;32.10
3037;DHT22;1528;52.550;13.408;2022-09-09T09:36:37;22.70;32.00
3037;DHT22;1528;52.550;13.408;2022-09-09T09:39:25;22.80;31.30
3037;DHT22;1528;52.550;13.408;2022-09-09T09:42:12;22.80;31.10
3037;DHT22;1528;52.550;13.408;2022-09-09T09:45:07;22.70;30.70
3037;DHT22;1528;52.550;13.408;2022-09-09T09:48:02;22.40;30.50
3037;DHT22;1528;52.550;13.408;2022-09-09T09:50:51;23.10;30.40
3037;DHT22;1528;52.550;13.408;2022-09-09T09:53:38;23.80;28.10
3037;DHT22;1528;52.550;13.408;2022-09-09T09:56:27;23.90;28.30
3037;DHT22;1528;52.550;13.408;2022-09-09T09:59:22;23.70;27.80
3037;DHT22;1528;52.550;13.408;2022-09-09T10:02:17;23.40;28.00
3037;DHT22;1528;52.550;13.408;2022-09-09T10:05:05;23.20;28.70
3037;DHT22;1528;52.550;13.408;2022-09-09T10:08:02;23.10;29.10
3037;DHT22;1528;52.550;13.408;2022-09-09T10:10:58;22.80;29.80
3037;DHT22;1528;52.550;13.408;2022-09-09T10:13:52;22.80;29.60
3037;DHT22;1528;52.550;13.408;2022-09-09T10:16:55;22.80;29.80
3037;DHT22;1528;52.550;13.408;2022-09-09T10:19:51;22.70;30.00
3037;DHT22;1528;52.550;13.408;2022-09-09T10:22:47;23.10;29.10
3037;DHT22;1528;52.550;13.408;2022-09-09T10:25:49;23.10;28.80
3037;DHT22;1528;52.550;13.408;2022-09-09T10:28:55;23.30;29.00
3037;DHT22;1528;52.550;13.408;2022-09-09T10:31:52;23.40;28.40
3037;DHT22;1528;52.550;13.408;2022-09-09T10:34:56;23.30;28.30
3037;DHT22;1528;52.550;13.408;2022-09-09T10:38:00;23.40;27.70
3037;DHT22;1528;52.550;13.408;2022-09-09T10:41:11;23.40;28.80
3037;DHT22;1528;52.550;13.408;2022-09-09T10:44:15;23.40;29.10
3037;DHT22;1528;52.550;13.408;2022-09-09T10:47:23;23.60;28.80
3037;DHT22;1528;52.550;13.408;2022-09-09T10:50:31;23.80;28.10
3037;DHT22;1528;52.550;13.408;2022-09-09T10:53:32;23.90;27.40
3037;DHT22;1528;52.550;13.408;2022-09-09T10:56:24;23.90;26.80
3037;DHT22;1528;52.550;13.408;2022-09-09T10:59:14;24.00;26.70
3037;DHT22;1528;52.550;13.408;2022-09-09T11:02:07;24.10;26.70
3037;DHT22;1528;52.550;13.408;2022-09-09T11:05:03;24.20;26.60
3037;DHT22;1528;52.550;13.408;2022-09-09T11:07:56;24.60;26.00
3037;DHT22;1528;52.550;13.408;2022-09-09T11:10:48;24.70;25.90
3037;DHT22;1528;52.550;13.408;2022-09-09T11:13:42;24.90;25.00
3037;DHT22;1528;52.550;13.408;2022-09-09T11:16:33;24.90;24.50
3037;DHT22;1528;52.550;13.408;2022-09-09T11:19:26;24.80;23.90
3037;DHT22;1528;52.550;13.408;2022-09-09T11:22:18;25.20;23.30
3037;DHT22;1528;52.550;13.408;2022-09-09T11:25:10;25.40;22.80
3037;DHT22;1528;52.550;13.408;2022-09-09T11:28:14;26.70;21.60
3037;DHT22;1528;52.550;13.408;2022-09-09T11:31:38;28.30;19.00
3037;DHT22;1528;52.550;13.408;2022-09-09T11:34:42;28.30;16.50
3037;DHT22;1528;52.550;13.408;2022-09-09T11:40:41;27.60;18.30
3037;DHT22;1528;52.550;13.408;2022-09-09T11:43:30;27.10;19.40
3037;DHT22;1528;52.550;13.408;2022-09-09T11:46:17;26.70;20.00
3037;DHT22;1528;52.550;13.408;2022-09-09T11:49:05;26.70;19.70
3037;DHT22;1528;52.550;13.408;2022-09-09T11:51:51;26.50;20.10
3037;DHT22;1528;52.550;13.408;2022-09-09T11:54:46;26.30;20.70
3037;DHT22;1528;52.550;13.408;2022-09-09T11:57:35;26.00;20.90
3037;DHT22;1528;52.550;13.408;2022-09-09T12:00:32;25.80;20.90
3037;DHT22;1528;52.550;13.408;2022-09-09T12:03:40;26.00;20.10
3037;DHT22;1528;52.550;13.408;2022-09-09T12:06:31;26.60;18.90
3037;DHT22;1528;52.550;13.408;2022-09-09T12:09:21;26.80;20.60
3037;DHT22;1528;52.550;13.408;2022-09-09T12:12:26;26.50;18.60
3037;DHT22;1528;52.550;13.408;2022-09-09T12:15:24;26.30;19.60
3037;DHT22;1528;52.550;13.408;2022-09-09T12:18:15;26.30;19.50
3037;DHT22;1528;52.550;13.408;2022-09-09T12:21:08;30.10;15.50
3037;DHT22;1528;52.550;13.408;2022-09-09T12:24:02;35.80;5.80
3037;DHT22;1528;52.550;13.408;2022-09-09T12:26:54;40.20;1.00
3037;DHT22;1528;52.550;13.408;2022-09-09T12:29:46;42.20;1.00
3037;DHT22;1528;52.550;13.408;2022-09-09T12:32:34;42.70;1.00
3037;DHT22;1528;52.550;13.408;2022-09-09T12:35:24;42.30;1.00
3037;DHT22;1528;52.550;13.408;2022-09-09T12:38:15;41.00;1.00
3037;DHT22;1528;52.550;13.408;2022-09-09T12:41:15;39.20;1.00
3037;DHT22;1528;52.550;13.408;2022-09-09T12:44:04;36.70;1.00
3037;DHT22;1528;52.550;13.408;2022-09-09T12:46:53;34.40;1.00
3037;DHT22;1528;52.550;13.408;2022-09-09T12:49:39;33.00;2.50
3037;DHT22;1528;52.550;13.408;2022-09-09T12:52:28;32.10;3.70
3037;DHT22;1528;52.550;13.408;2022-09-09T12:55:18;30.80;6.10
3037;DHT22;1528;52.550;13.408;2022-09-09T12:58:06;30.40;6.90
3037;DHT22;1528;52.550;13.408;2022-09-09T13:00:53;29.90;6.80
3037;DHT22;1528;52.550;13.408;2022-09-09T13:03:42;29.60;7.90
3037;DHT22;1528;52.550;13.408;2022-09-09T13:06:32;29.30;7.90
3037;DHT22;1528;52.550;13.408;2022-09-09T13:09:18;29.20;8.80
3037;DHT22;1528;52.550;13.408;2022-09-09T13:12:04;28.90;8.80
3037;DHT22;1528;52.550;13.408;2022-09-09T13:14:54;28.40;10.10
3037;DHT22;1528;52.550;13.408;2022-09-09T13:17:41;28.10;11.60
3037;DHT22;1528;52.550;13.408;2022-09-09T13:20:27;27.60;11.30
3037;DHT22;1528;52.550;13.408;2022-09-09T13:23:15;27.30;12.20
3037;DHT22;1528;52.550;13.408;2022-09-09T13:26:05;27.00;13.00
3037;DHT22;1528;52.550;13.408;2022-09-09T13:28:52;26.70;12.90
3037;DHT22;1528;52.550;13.408;2022-09-09T13:31:39;26.50;14.10
3037;DHT22;1528;52.550;13.408;2022-09-09T13:34:29;26.30;14.80
3037;DHT22;1528;52.550;13.408;2022-09-09T13:37:22;26.10;14.00
3037;DHT22;1528;52.550;13.408;2022-09-09T13:40:17;26.10;14.70
3037;DHT22;1528;52.550;13.408;2022-09-09T13:43:03;26.00;13.60
3037;DHT22;1528;52.550;13.408;2022-09-09T13:45:56;25.90;13.70
3037;DHT22;1528;52.550;13.408;2022-09-09T13:48:54;25.90;13.60
3037;DHT22;1528;52.550;13.408;2022-09-09T13:51:41;25.90;15.00
3037;DHT22;1528;52.550;13.408;2022-09-09T13:54:26;26.10;13.20
3037;DHT22;1528;52.550;13.408;2022-09-09T13:57:15;26.60;13.40
3037;DHT22;1528;52.550;13.408;2022-09-09T14:00:01;26.70;14.00
3037;DHT22;1528;52.550;13.408;2022-09-09T14:02:47;27.00;12.80
3037;DHT22;1528;52.550;13.408;2022-09-09T14:05:34;27.00;13.20
3037;DHT22;1528;52.550;13.408;2022-09-09T14:08:24;26.90;13.00
3037;DHT22;1528;52.550;13.408;2022-09-09T14:11:12;26.90;13.00
3037;DHT22;1528;52.550;13.408;2022-09-09T14:13:58;27.00;12.80
3037;DHT22;1528;52.550;13.408;2022-09-09T14:16:45;27.10;12.80
3037;DHT22;1528;52.550;13.408;2022-09-09T14:19:30;27.10;12.70
3037;DHT22;1528;52.550;13.408;2022-09-09T14:22:17;27.30;12.70
3037;DHT22;1528;52.550;13.408;2022-09-09T14:25:02;27.30;12.40
3037;DHT22;1528;52.550;13.408;2022-09-09T14:27:48;27.20;12.70
3037;DHT22;1528;52.550;13.408;2022-09-09T14:30:35;27.10;12.70
3037;DHT22;1528;52.550;13.408;2022-09-09T14:33:21;26.90;12.90
3037;DHT22;1528;52.550;13.408;2022-09-09T14:36:07;26.80;14.40
3037;DHT22;1528;52.550;13.408;2022-09-09T14:38:54;26.70;12.50
3037;DHT22;1528;52.550;13.408;2022-09-09T14:41:39;26.70;12.50
3037;DHT22;1528;52.550;13.408;2022-09-09T14:44:25;26.70;13.70
3037;DHT22;1528;52.550;13.408;2022-09-09T14:47:10;27.00;13.00
3037;DHT22;1528;52.550;13.408;2022-09-09T14:49:56;27.70;11.40
3037;DHT22;1528;52.550;13.408;2022-09-09T14:52:41;28.20;11.10
3037;DHT22;1528;52.550;13.408;2022-09-09T14:55:28;28.10;10.90
3037;DHT22;1528;52.550;13.408;2022-09-09T14:58:14;27.70;11.40
3037;DHT22;1528;52.550;13.408;2022-09-09T15:01:04;27.30;12.30
3037;DHT22;1528;52.550;13.408;2022-09-09T15:03:51;26.80;12.70
3037;DHT22;1528;52.550;13.408;2022-09-09T15:06:36;26.40;13.40
3037;DHT22;1528;52.550;13.408;2022-09-09T15:09:23;26.00;13.80
3037;DHT22;1528;52.550;13.408;2022-09-09T15:12:09;26.00;15.00
3037;DHT22;1528;52.550;13.408;2022-09-09T15:14:55;25.80;15.30
3037;DHT22;1528;52.550;13.408;2022-09-09T15:17:40;25.90;14.60
3037;DHT22;1528;52.550;13.408;2022-09-09T15:20:26;26.00;14.40
3037;DHT22;1528;52.550;13.408;2022-09-09T15:23:12;27.40;13.50
3037;DHT22;1528;52.550;13.408;2022-09-09T15:25:57;32.20;6.50
3037;DHT22;1528;52.550;13.408;2022-09-09T15:28:45;36.60;1.00
3037;DHT22;1528;52.550;13.408;2022-09-09T15:31:31;39.20;1.00
3037;DHT22;1528;52.550;13.408;2022-09-09T15:34:17;38.00;1.00
3037;DHT22;1528;52.550;13.408;2022-09-09T15:37:03;37.00;1.00
3037;DHT22;1528;52.550;13.408;2022-09-09T15:39:48;36.50;1.00
3037;DHT22;1528;52.550;13.408;2022-09-09T15:42:34;35.60;1.00
3037;DHT22;1528;52.550;13.408;2022-09-09T15:45:21;34.50;1.00
3037;DHT22;1528;52.550;13.408;2022-09-09T15:48:06;34.20;2.00
3037;DHT22;1528;52.550;13.408;2022-09-09T15:51:01;33.80;2.70
3037;DHT22;1528;52.550;13.408;2022-09-09T15:53:47;32.40;4.30
3037;DHT22;1528;52.550;13.408;2022-09-09T15:56:33;31.20;5.50
3037;DHT22;1528;52.550;13.408;2022-09-09T15:59:18;30.20;7.60
3037;DHT22;1528;52.550;13.408;2022-09-09T16:02:05;29.30;9.00
3037;DHT22;1528;52.550;13.408;2022-09-09T16:04:51;28.70;10.40
3037;DHT22;1528;52.550;13.408;2022-09-09T16:07:36;28.10;10.70
3037;DHT22;1528;52.550;13.408;2022-09-09T16:10:22;27.70;11.60
3037;DHT22;1528;52.550;13.408;2022-09-09T16:13:07;27.20;12.00
3037;DHT22;1528;52.550;13.408;2022-09-09T16:15:54;26.90;12.90
3037;DHT22;1528;52.550;13.408;2022-09-09T16:18:42;26.70;14.00
3037;DHT22;1528;52.550;13.408;2022-09-09T16:21:30;26.70;13.40
3037;DHT22;1528;52.550;13.408;2022-09-09T16:24:18;26.30;14.60
3037;DHT22;1528;52.550;13.408;2022-09-09T16:27:04;26.20;15.20
3037;DHT22;1528;52.550;13.408;2022-09-09T16:29:49;26.00;14.90
3037;DHT22;1528;52.550;13.408;2022-09-09T16:32:35;25.80;16.30
3037;DHT22;1528;52.550;13.408;2022-09-09T16:35:22;25.40;16.20
3037;DHT22;1528;52.550;13.408;2022-09-09T16:38:07;25.30;15.40
3037;DHT22;1528;52.550;13.408;2022-09-09T16:40:59;25.10;15.10
3037;DHT22;1528;52.550;13.408;2022-09-09T16:43:44;24.90;16.90
3037;DHT22;1528;52.550;13.408;2022-09-09T16:46:32;24.80;16.20
3037;DHT22;1528;52.550;13.408;2022-09-09T16:49:19;24.70;15.90
3037;DHT22;1528;52.550;13.408;2022-09-09T16:52:06;24.60;16.00
3037;DHT22;1528;52.550;13.408;2022-09-09T16:54:52;24.30;16.90
3037;DHT22;1528;52.550;13.408;2022-09-09T16:57:37;24.20;17.30
3037;DHT22;1528;52.550;13.408;2022-09-09T17:00:23;24.10;17.40
3037;DHT22;1528;52.550;13.408;2022-09-09T17:03:12;24.00;17.20
3037;DHT22;1528;52.550;13.408;2022-09-09T17:05:57;23.90;18.70
3037;DHT22;1528;52.550;13.408;2022-09-09T17:08:47;23.70;18.30
3037;DHT22;1528;52.550;13.408;2022-09-09T17:11:33;23.60;18.20
3037;DHT22;1528;52.550;13.408;2022-09-09T17:14:20;23.60;18.10
3037;DHT22;1528;52.550;13.408;2022-09-09T17:17:06;23.50;18.20
3037;DHT22;1528;52.550;13.408;2022-09-09T17:19:51;23.30;18.60
3037;DHT22;1528;52.550;13.408;2022-09-09T17:22:37;23.20;18.80
3037;DHT22;1528;52.550;13.408;2022-09-09T17:25:24;23.00;19.50
3037;DHT22;1528;52.550;13.408;2022-09-09T17:28:09;22.90;19.70
3037;DHT22;1528;52.550;13.408;2022-09-09T17:30:55;22.90;20.00
3037;DHT22;1528;52.550;13.408;2022-09-09T17:33:42;22.90;20.00
3037;DHT22;1528;52.550;13.408;2022-09-09T17:36:30;22.80;20.70
3037;DHT22;1528;52.550;13.408;2022-09-09T17:39:17;22.70;22.00
3037;DHT22;1528;52.550;13.408;2022-09-09T17:42:04;22.60;22.20
3037;DHT22;1528;52.550;13.408;2022-09-09T17:44:51;22.50;23.20
3037;DHT22;1528;52.550;13.408;2022-09-09T17:47:37;22.20;23.10
3037;DHT22;1528;52.550;13.408;2022-09-09T17:50:22;22.30;22.00
3037;DHT22;1528;52.550;13.408;2022-09-09T17:53:08;22.20;22.20
3037;DHT22;1528;52.550;13.408;2022-09-09T17:55:54;22.00;21.80
3037;DHT22;1528;52.550;13.408;2022-09-09T17:58:41;22.00;21.60
3037;DHT22;1528;52.550;13.408;2022-09-09T18:01:29;21.90;21.00
3037;DHT22;1528;52.550;13.408;2022-09-09T18:04:16;21.90;21.20
3037;DHT22;1528;52.550;13.408;2022-09-09T18:07:01;21.70;19.80
3037;DHT22;1528;52.550;13.408;2022-09-09T18:09:47;21.50;20.30
3037;DHT22;1528;52.550;13.408;2022-09-09T18:12:32;21.40;19.80